Time;durP1;ratioP1;P1;durP2;ratioP2;P2;SDS_P1;SDS_P2;PMS_P1;PMS_P2;Temp;Humidity;BMP_temperature;BMP_pressure;BME280_temperature;BME280_humidity;BME280_pressure;Samples;Min_cycle;Max_cycle;Signal;HPM_P1;HPM_P2
2021/09/12 00:00:23;;;;;;;6.78;3.85;;;;;;;;;;5011758;28;20050;-65
2021/09/12 00:02:52;;;;;;;6.38;3.70;;;;;;;;;;5010962;28;20103;-65
2021/09/12 00:05:21;;;;;;;4.40;3.45;;;;;;;;;;5010850;28;20362;-65
2021/09/12 00:07:49;;;;;;;6.65;3.70;;;;;;;;;;5008353;28;20578;-65
2021/09/12 00:10:19;;;;;;;5.55;3.35;;;;;;;;;;5002386;28;20828;-65
2021/09/12 00:12:47;;;;;;;6.15;3.63;;;;;;;;;;5004620;28;20505;-65
2021/09/12 00:15:16;;;;;;;5.18;3.00;;;;;;;;;;5009990;28;20061;-65
2021/09/12 00:17:44;;;;;;;5.40;3.70;;;;;;;;;;5011325;28;20054;-66
2021/09/12 00:20:13;;;;;;;6.05;3.70;;;;;;;;;;5010449;28;20137;-66
2021/09/12 00:22:41;;;;;;;7.68;3.53;;;;;;;;;;5009733;28;20048;-65
2021/09/12 00:25:10;;;;;;;10.15;3.42;;;;;;;;;;5007585;28;20141;-65
2021/09/12 00:27:40;;;;;;;6.78;3.50;;;;;;;;;;5011151;28;20050;-65
2021/09/12 00:30:10;;;;;;;7.45;4.00;;;;;;;;;;5011160;28;20057;-65
2021/09/12 00:32:38;;;;;;;6.70;3.83;;;;;;;;;;5008622;28;20054;-65
2021/09/12 00:35:07;;;;;;;9.75;4.10;;;;;;;;;;5010050;28;20052;-65
2021/09/12 00:37:36;;;;;;;7.43;4.50;;;;;;;;;;5011110;28;20101;-66
2021/09/12 00:40:05;;;;;;;6.68;4.20;;;;;;;;;;5009845;28;20061;-66
2021/09/12 00:42:34;;;;;;;8.23;3.83;;;;;;;;;;5003318;28;20047;-65
2021/09/12 00:45:04;;;;;;;6.20;3.70;;;;;;;;;;5009116;28;20148;-65
2021/09/12 00:47:32;;;;;;;5.95;3.90;;;;;;;;;;5010108;28;20526;-65
2021/09/12 00:50:01;;;;;;;7.75;4.00;;;;;;;;;;5009431;28;20042;-65
2021/09/12 00:52:30;;;;;;;5.78;3.83;;;;;;;;;;5010205;28;20053;-65
2021/09/12 00:54:59;;;;;;;7.43;3.90;;;;;;;;;;5009060;28;20767;-66
2021/09/12 00:57:27;;;;;;;7.85;3.85;;;;;;;;;;5009129;28;20045;-65
2021/09/12 00:59:56;;;;;;;6.93;3.90;;;;;;;;;;5005600;28;20080;-65
2021/09/12 01:02:25;;;;;;;7.35;3.70;;;;;;;;;;4996668;22;20061;-71
2021/09/12 01:04:54;;;;;;;7.25;3.92;;;;;;;;;;4984791;28;20104;-70
2021/09/12 01:07:22;;;;;;;12.00;4.07;;;;;;;;;;4991637;28;20088;-69
2021/09/12 01:09:50;;;;;;;6.22;4.07;;;;;;;;;;4989378;28;20049;-69
2021/09/12 01:12:19;;;;;;;9.93;4.18;;;;;;;;;;4991543;28;20085;-69
2021/09/12 01:14:47;;;;;;;5.45;3.13;;;;;;;;;;4989601;28;20061;-69
2021/09/12 01:17:16;;;;;;;5.60;3.38;;;;;;;;;;4993814;28;20528;-76
2021/09/12 01:19:45;;;;;;;5.18;3.33;;;;;;;;;;4990636;28;20042;-68
2021/09/12 01:22:14;;;;;;;7.22;3.70;;;;;;;;;;4991485;28;20046;-70
2021/09/12 01:24:43;;;;;;;9.07;3.47;;;;;;;;;;4989952;28;20059;-69
2021/09/12 01:27:11;;;;;;;5.82;3.35;;;;;;;;;;4991203;28;20053;-69
2021/09/12 01:29:40;;;;;;;8.27;4.03;;;;;;;;;;4989801;28;20058;-69
2021/09/12 01:32:08;;;;;;;5.30;3.28;;;;;;;;;;4987742;28;20058;-71
2021/09/12 01:34:37;;;;;;;6.97;3.28;;;;;;;;;;4989819;28;20042;-70
2021/09/12 01:37:05;;;;;;;6.85;3.10;;;;;;;;;;4987328;28;20399;-68
2021/09/12 01:39:33;;;;;;;5.40;3.20;;;;;;;;;;4983834;28;20572;-68
2021/09/12 01:42:03;;;;;;;8.52;4.00;;;;;;;;;;4988002;28;20053;-68
2021/09/12 01:44:31;;;;;;;5.95;3.53;;;;;;;;;;4993534;28;20066;-68
2021/09/12 01:46:59;;;;;;;5.97;3.40;;;;;;;;;;4994431;28;20416;-71
2021/09/12 01:49:28;;;;;;;5.75;3.47;;;;;;;;;;4994997;28;20522;-69
2021/09/12 01:51:56;;;;;;;7.20;3.95;;;;;;;;;;4994920;28;20058;-73
2021/09/12 01:54:24;;;;;;;5.28;3.40;;;;;;;;;;4993581;28;20125;-68
2021/09/12 01:56:52;;;;;;;5.88;3.60;;;;;;;;;;4994012;28;20048;-69
2021/09/12 01:59:22;;;;;;;6.80;3.30;;;;;;;;;;4994307;28;20052;-69
2021/09/12 02:01:50;;;;;;;7.20;4.00;;;;;;;;;;4994384;28;20164;-69
2021/09/12 02:04:19;;;;;;;7.05;3.53;;;;;;;;;;4993472;28;20054;-69
2021/09/12 02:06:47;;;;;;;6.03;3.28;;;;;;;;;;4993452;28;20058;-76
2021/09/12 02:09:15;;;;;;;5.50;3.53;;;;;;;;;;4994105;28;20141;-68
2021/09/12 02:11:43;;;;;;;14.65;3.92;;;;;;;;;;4993899;28;20061;-69
2021/09/12 02:14:12;;;;;;;7.32;3.78;;;;;;;;;;4994051;28;20128;-69
2021/09/12 02:16:41;;;;;;;6.10;3.45;;;;;;;;;;4992663;28;20050;-70
2021/09/12 02:19:10;;;;;;;7.78;3.92;;;;;;;;;;4994192;28;20046;-68
2021/09/12 02:21:38;;;;;;;4.50;3.20;;;;;;;;;;4989770;28;20605;-68
2021/09/12 02:24:06;;;;;;;7.05;3.15;;;;;;;;;;4993600;28;20136;-68
2021/09/12 02:26:34;;;;;;;5.82;3.30;;;;;;;;;;4993411;28;20129;-71
2021/09/12 02:29:03;;;;;;;6.40;3.42;;;;;;;;;;4994519;28;20042;-69
2021/09/12 02:31:31;;;;;;;5.88;3.40;;;;;;;;;;4992493;28;20050;-69
2021/09/12 02:34:00;;;;;;;6.65;3.03;;;;;;;;;;4994676;28;20042;-69
2021/09/12 02:36:29;;;;;;;6.15;2.92;;;;;;;;;;4988493;28;20081;-69
2021/09/12 02:38:57;;;;;;;8.73;3.35;;;;;;;;;;4993438;28;20061;-68
2021/09/12 02:41:25;;;;;;;6.40;3.20;;;;;;;;;;4990889;28;20046;-73
2021/09/12 02:43:53;;;;;;;5.60;3.08;;;;;;;;;;4993500;28;20406;-68
2021/09/12 02:46:22;;;;;;;5.20;3.20;;;;;;;;;;4993966;28;20210;-69
2021/09/12 02:48:50;;;;;;;6.50;3.53;;;;;;;;;;4994518;28;20100;-69
2021/09/12 02:51:20;;;;;;;5.55;2.92;;;;;;;;;;4993451;28;20141;-70
2021/09/12 02:53:48;;;;;;;6.68;3.33;;;;;;;;;;4992941;28;20054;-76
2021/09/12 02:56:16;;;;;;;5.40;3.42;;;;;;;;;;4992968;28;20046;-68
2021/09/12 02:58:44;;;;;;;5.78;3.08;;;;;;;;;;4992934;28;20064;-68
2021/09/12 03:01:13;;;;;;;8.95;3.33;;;;;;;;;;4992736;28;20059;-71
2021/09/12 03:03:41;;;;;;;6.55;3.38;;;;;;;;;;4989551;28;20061;-70
2021/09/12 03:06:10;;;;;;;5.75;2.92;;;;;;;;;;4977759;28;20494;-68
2021/09/12 03:08:39;;;;;;;4.82;3.00;;;;;;;;;;4993134;28;20153;-73
2021/09/12 03:11:08;;;;;;;6.03;3.08;;;;;;;;;;4992372;28;20060;-71
2021/09/12 03:13:36;;;;;;;5.30;3.08;;;;;;;;;;4992942;28;20048;-68
2021/09/12 03:16:05;;;;;;;6.53;2.97;;;;;;;;;;4984888;28;20062;-69
2021/09/12 03:18:34;;;;;;;6.82;3.60;;;;;;;;;;4988829;28;20042;-68
2021/09/12 03:21:02;;;;;;;5.53;3.50;;;;;;;;;;4992032;28;20051;-68
2021/09/12 03:23:30;;;;;;;5.30;3.28;;;;;;;;;;4989430;28;20052;-69
2021/09/12 03:26:00;;;;;;;5.13;3.03;;;;;;;;;;4991209;28;20046;-70
2021/09/12 03:28:28;;;;;;;6.95;2.85;;;;;;;;;;4987697;28;20502;-71
2021/09/12 03:30:56;;;;;;;5.75;3.25;;;;;;;;;;4988767;28;20042;-73
2021/09/12 03:33:25;;;;;;;5.15;3.20;;;;;;;;;;4988452;28;20105;-72
2021/09/12 03:35:53;;;;;;;5.43;3.10;;;;;;;;;;4987869;28;20702;-68
2021/09/12 03:38:26;;;;;;;4.68;2.50;;;;;;;;;;3724810;28;10024103;-69
2021/09/12 03:40:55;;;;;;;6.55;3.50;;;;;;;;;;1713844;28;10002028;-71
2021/09/12 03:43:25;;;;;;;4.85;3.50;;;;;;;;;;4980687;28;20477;-68
2021/09/12 03:45:55;;;;;;;4.85;3.10;;;;;;;;;;4989438;28;20046;-68
2021/09/12 03:48:25;;;;;;;5.35;3.40;;;;;;;;;;4991278;28;20084;-68
2021/09/12 03:50:53;;;;;;;4.40;3.17;;;;;;;;;;4991718;28;20093;-69
2021/09/12 03:53:21;;;;;;;4.55;2.85;;;;;;;;;;4991431;28;20498;-69
2021/09/12 03:55:49;;;;;;;4.85;3.00;;;;;;;;;;4992722;28;20054;-75
2021/09/12 03:58:17;;;;;;;5.55;2.90;;;;;;;;;;4991057;28;20108;-70
2021/09/12 04:00:47;;;;;;;4.78;3.20;;;;;;;;;;4990953;28;20130;-68
2021/09/12 04:03:15;;;;;;;5.53;3.08;;;;;;;;;;4991668;28;20109;-68
2021/09/12 04:05:44;;;;;;;7.97;3.38;;;;;;;;;;4981213;28;20494;-68
2021/09/12 04:08:12;;;;;;;5.63;3.00;;;;;;;;;;4991813;28;20150;-68
2021/09/12 04:10:41;;;;;;;5.55;3.03;;;;;;;;;;4991595;28;20050;-69
2021/09/12 04:13:09;;;;;;;3.75;2.55;;;;;;;;;;4991225;28;20145;-69
2021/09/12 04:15:37;;;;;;;5.70;3.25;;;;;;;;;;4990499;28;20137;-68
2021/09/12 04:18:07;;;;;;;5.05;2.92;;;;;;;;;;4983864;28;20125;-68
2021/09/12 04:20:35;;;;;;;5.97;3.33;;;;;;;;;;4992206;28;20582;-68
2021/09/12 04:23:03;;;;;;;7.95;3.28;;;;;;;;;;4991083;28;20053;-68
2021/09/12 04:25:32;;;;;;;6.22;3.30;;;;;;;;;;4991450;28;20041;-71
2021/09/12 04:28:00;;;;;;;5.90;2.65;;;;;;;;;;4991338;28;20073;-69
2021/09/12 04:30:29;;;;;;;5.75;3.00;;;;;;;;;;4990905;28;20042;-73
2021/09/12 04:32:57;;;;;;;4.32;3.15;;;;;;;;;;4991423;28;20129;-72
2021/09/12 04:35:26;;;;;;;4.65;2.78;;;;;;;;;;4989625;28;20185;-71
2021/09/12 04:37:55;;;;;;;4.05;2.65;;;;;;;;;;4976747;28;20042;-68
2021/09/12 04:40:23;;;;;;;3.65;2.65;;;;;;;;;;4985028;28;20593;-68
2021/09/12 04:42:51;;;;;;;4.90;2.80;;;;;;;;;;4992167;28;20054;-68
2021/09/12 04:45:20;;;;;;;5.03;3.17;;;;;;;;;;4990242;28;20061;-71
2021/09/12 04:47:48;;;;;;;5.82;2.80;;;;;;;;;;4990616;28;20050;-71
2021/09/12 04:50:16;;;;;;;4.15;2.97;;;;;;;;;;4991048;28;20048;-68
2021/09/12 04:52:47;;;;;;;4.25;3.00;;;;;;;;;;4991157;28;20605;-68
2021/09/12 04:55:16;;;;;;;5.65;3.25;;;;;;;;;;4990497;28;20297;-72
2021/09/12 04:57:44;;;;;;;10.32;3.00;;;;;;;;;;4991027;28;20065;-68
2021/09/12 05:00:13;;;;;;;5.90;2.85;;;;;;;;;;4990459;28;20049;-68
2021/09/12 05:02:41;;;;;;;3.88;2.50;;;;;;;;;;4990830;28;20060;-69
2021/09/12 05:05:10;;;;;;;4.32;2.83;;;;;;;;;;4989943;28;20524;-68
2021/09/12 05:07:39;;;;;;;6.85;2.97;;;;;;;;;;4990939;28;20133;-68
2021/09/12 05:10:09;;;;;;;3.72;2.50;;;;;;;;;;4990819;28;20046;-68
2021/09/12 05:12:37;;;;;;;7.78;3.05;;;;;;;;;;4991042;28;20060;-68
2021/09/12 05:15:06;;;;;;;4.35;2.75;;;;;;;;;;4985566;28;20101;-71
2021/09/12 05:17:34;;;;;;;4.78;3.13;;;;;;;;;;4990732;28;20042;-68
2021/09/12 05:20:02;;;;;;;5.03;2.42;;;;;;;;;;4990270;28;20054;-68
2021/09/12 05:22:30;;;;;;;4.70;2.70;;;;;;;;;;4991420;28;20046;-68
2021/09/12 05:24:58;;;;;;;6.40;2.60;;;;;;;;;;4990621;28;20076;-68
2021/09/12 05:27:28;;;;;;;5.20;2.65;;;;;;;;;;4991027;28;20407;-74
2021/09/12 05:29:56;;;;;;;4.13;3.03;;;;;;;;;;4988458;28;20042;-73
2021/09/12 05:32:24;;;;;;;5.65;2.88;;;;;;;;;;4989944;28;20085;-68
2021/09/12 05:34:53;;;;;;;4.20;2.83;;;;;;;;;;4989467;28;20490;-71
2021/09/12 05:37:21;;;;;;;4.40;2.80;;;;;;;;;;4990799;28;20137;-71
2021/09/12 05:39:49;;;;;;;5.63;3.15;;;;;;;;;;4991593;28;20129;-68
2021/09/12 05:42:17;;;;;;;2.90;2.30;;;;;;;;;;4992068;28;20054;-68
2021/09/12 05:44:47;;;;;;;4.03;2.40;;;;;;;;;;4990335;28;20149;-71
2021/09/12 05:47:15;;;;;;;3.55;2.63;;;;;;;;;;4991307;28;20049;-67
2021/09/12 05:49:43;;;;;;;5.07;3.10;;;;;;;;;;4989272;28;20053;-68
2021/09/12 05:52:12;;;;;;;4.10;2.53;;;;;;;;;;4988064;28;20058;-70
2021/09/12 05:54:40;;;;;;;3.42;2.22;;;;;;;;;;4987692;28;20046;-71
2021/09/12 05:57:08;;;;;;;10.63;3.10;;;;;;;;;;4991382;28;20074;-70
2021/09/12 05:59:36;;;;;;;3.20;2.22;;;;;;;;;;4991091;28;20046;-68
2021/09/12 06:02:06;;;;;;;4.60;2.78;;;;;;;;;;4988899;28;20459;-68
2021/09/12 06:04:34;;;;;;;5.15;2.90;;;;;;;;;;4970909;28;20134;-70
2021/09/12 06:07:03;;;;;;;3.78;2.55;;;;;;;;;;4990469;28;20042;-68
2021/09/12 06:09:31;;;;;;;5.72;2.95;;;;;;;;;;4991218;28;20072;-68
2021/09/12 06:11:59;;;;;;;2.75;2.33;;;;;;;;;;4990443;28;20140;-68
2021/09/12 06:14:28;;;;;;;4.22;2.72;;;;;;;;;;4990050;28;20043;-73
2021/09/12 06:16:56;;;;;;;3.85;2.83;;;;;;;;;;4986825;28;20085;-73
2021/09/12 06:19:26;;;;;;;5.13;2.70;;;;;;;;;;4987664;28;20039;-69
2021/09/12 06:21:54;;;;;;;4.93;2.75;;;;;;;;;;4984875;28;20516;-68
2021/09/12 06:24:22;;;;;;;3.97;2.80;;;;;;;;;;4987580;28;20495;-70
2021/09/12 06:26:50;;;;;;;6.80;3.63;;;;;;;;;;4988780;28;20054;-68
2021/09/12 06:29:19;;;;;;;5.03;3.00;;;;;;;;;;4988053;28;20133;-70
2021/09/12 06:31:48;;;;;;;4.38;2.85;;;;;;;;;;4991872;28;20044;-68
2021/09/12 06:34:16;;;;;;;4.70;3.08;;;;;;;;;;4990992;28;20521;-75
2021/09/12 06:36:45;;;;;;;4.85;3.05;;;;;;;;;;4991652;28;20483;-68
2021/09/12 06:39:14;;;;;;;5.28;3.08;;;;;;;;;;4992009;28;20088;-68
2021/09/12 06:41:42;;;;;;;5.18;2.85;;;;;;;;;;4992032;28;20586;-68
2021/09/12 06:44:11;;;;;;;7.18;4.07;;;;;;;;;;4991183;28;20046;-68
2021/09/12 06:46:39;;;;;;;7.45;4.50;;;;;;;;;;4991863;28;20046;-70
2021/09/12 06:49:07;;;;;;;6.70;4.13;;;;;;;;;;4991956;28;20057;-69
2021/09/12 06:51:35;;;;;;;9.23;5.18;;;;;;;;;;4991188;28;20421;-71
2021/09/12 06:54:05;;;;;;;8.73;4.57;;;;;;;;;;4990424;28;20042;-71
2021/09/12 06:56:33;;;;;;;7.88;4.80;;;;;;;;;;4987379;28;20514;-69
2021/09/12 06:59:01;;;;;;;10.07;4.95;;;;;;;;;;4977658;28;20051;-69
2021/09/12 07:01:30;;;;;;;8.10;4.47;;;;;;;;;;4989998;28;20828;-70
2021/09/12 07:03:59;;;;;;;9.15;5.72;;;;;;;;;;4990177;28;20145;-73
2021/09/12 07:06:28;;;;;;;13.48;6.07;;;;;;;;;;4990157;28;20060;-68
2021/09/12 07:08:56;;;;;;;12.10;5.53;;;;;;;;;;4989823;28;20113;-73
2021/09/12 07:11:25;;;;;;;13.02;6.80;;;;;;;;;;4987605;28;20126;-69
2021/09/12 07:13:54;;;;;;;11.57;6.43;;;;;;;;;;4984052;28;20162;-68
2021/09/12 07:16:22;;;;;;;10.13;5.85;;;;;;;;;;4990233;28;20134;-71
2021/09/12 07:18:51;;;;;;;11.23;6.45;;;;;;;;;;4989409;28;20058;-68
2021/09/12 07:21:23;;;;;;;11.45;6.03;;;;;;;;;;4988586;28;20050;-68
2021/09/12 07:23:51;;;;;;;12.13;6.47;;;;;;;;;;4989324;28;20049;-71
2021/09/12 07:26:20;;;;;;;17.40;8.23;;;;;;;;;;4987471;28;20458;-69
2021/09/12 07:28:50;;;;;;;11.70;6.20;;;;;;;;;;4987539;28;20077;-76
2021/09/12 07:31:18;;;;;;;12.30;6.80;;;;;;;;;;4986402;28;20139;-71
2021/09/12 07:33:46;;;;;;;14.20;6.53;;;;;;;;;;4988991;28;20414;-70
2021/09/12 07:36:14;;;;;;;11.43;6.32;;;;;;;;;;4989374;28;20409;-68
2021/09/12 07:38:43;;;;;;;18.33;6.55;;;;;;;;;;4988680;28;20133;-69
2021/09/12 07:41:12;;;;;;;12.13;6.40;;;;;;;;;;4989622;28;20141;-70
2021/09/12 07:43:40;;;;;;;13.13;6.70;;;;;;;;;;4987735;28;20051;-73
2021/09/12 07:46:10;;;;;;;12.65;6.78;;;;;;;;;;4984806;28;20511;-69
2021/09/12 07:48:38;;;;;;;17.45;7.28;;;;;;;;;;4984561;28;20648;-72
2021/09/12 07:51:07;;;;;;;12.90;6.10;;;;;;;;;;4974316;28;20043;-69
2021/09/12 07:53:35;;;;;;;13.68;6.15;;;;;;;;;;4988849;28;20038;-71
2021/09/12 07:56:03;;;;;;;11.40;6.40;;;;;;;;;;4991174;28;20053;-70
2021/09/12 07:58:32;;;;;;;13.10;6.78;;;;;;;;;;4990445;28;20493;-74
2021/09/12 08:01:00;;;;;;;13.63;6.70;;;;;;;;;;4990623;28;20145;-68
2021/09/12 08:03:30;;;;;;;15.13;7.13;;;;;;;;;;4987577;28;20068;-71
2021/09/12 08:05:59;;;;;;;13.18;6.55;;;;;;;;;;4986684;28;20057;-70
2021/09/12 08:08:27;;;;;;;10.90;6.05;;;;;;;;;;4986529;28;20136;-74
2021/09/12 08:10:56;;;;;;;12.27;5.78;;;;;;;;;;4987154;28;20046;-69
2021/09/12 08:13:24;;;;;;;11.95;5.85;;;;;;;;;;4986487;28;20056;-72
2021/09/12 08:15:52;;;;;;;14.93;7.05;;;;;;;;;;4987465;28;20610;-70
2021/09/12 08:18:22;;;;;;;10.85;5.68;;;;;;;;;;4987171;28;20049;-70
2021/09/12 08:20:52;;;;;;;8.15;5.30;;;;;;;;;;4986078;28;20058;-71
2021/09/12 08:23:20;;;;;;;10.10;5.72;;;;;;;;;;4987019;28;20051;-72
2021/09/12 08:25:49;;;;;;;8.75;5.63;;;;;;;;;;4988013;28;20482;-72
2021/09/12 08:28:17;;;;;;;11.77;5.00;;;;;;;;;;4988281;28;20064;-69
2021/09/12 08:30:50;;;;;;;10.02;5.97;;;;;;;;;;4986338;28;20062;-69
2021/09/12 08:33:18;;;;;;;11.13;5.78;;;;;;;;;;4986367;28;20054;-70
2021/09/12 08:35:46;;;;;;;11.00;5.20;;;;;;;;;;4987559;28;20487;-69
2021/09/12 08:38:16;;;;;;;8.60;4.53;;;;;;;;;;4987482;28;20054;-69
2021/09/12 08:40:44;;;;;;;8.55;5.25;;;;;;;;;;4987698;28;20053;-72
2021/09/12 08:43:13;;;;;;;5.95;3.83;;;;;;;;;;4987482;28;20054;-69
2021/09/12 08:45:42;;;;;;;12.15;5.28;;;;;;;;;;4987023;28;20112;-70
2021/09/12 08:48:10;;;;;;;8.45;4.72;;;;;;;;;;4987993;28;20074;-70
2021/09/12 08:50:38;;;;;;;7.15;4.35;;;;;;;;;;4986977;28;20054;-69
2021/09/12 08:53:07;;;;;;;7.00;4.25;;;;;;;;;;4987085;28;20162;-72
2021/09/12 08:55:36;;;;;;;7.63;3.97;;;;;;;;;;4987647;28;20069;-69
2021/09/12 08:58:05;;;;;;;11.60;4.93;;;;;;;;;;4987292;28;20072;-71
2021/09/12 09:00:33;;;;;;;6.95;4.55;;;;;;;;;;4987166;28;20050;-69
2021/09/12 09:03:02;;;;;;;6.50;4.05;;;;;;;;;;4987660;28;20076;-69
2021/09/12 09:05:33;;;;;;;10.85;4.25;;;;;;;;;;4986821;28;20046;-68
2021/09/12 09:08:08;;;;;;;5.68;3.60;;;;;;;;;;4987041;28;20513;-69
2021/09/12 09:10:36;;;;;;;;;;;;;;;;;;4987645;28;20506;-69
2021/09/12 09:13:24;;;;;;;6.50;3.80;;;;;;;;;;4987056;28;20378;-72
2021/09/12 09:15:52;;;;;;;8.10;5.20;;;;;;;;;;4985292;28;20058;-70
2021/09/12 09:18:30;;;;;;;6.38;4.00;;;;;;;;;;4987353;28;20064;-69
2021/09/12 09:20:59;;;;;;;7.90;5.15;;;;;;;;;;4986325;28;20141;-70
2021/09/12 09:23:27;;;;;;;7.30;3.67;;;;;;;;;;4987083;28;20064;-71
2021/09/12 09:25:56;;;;;;;6.35;3.95;;;;;;;;;;4986540;28;20112;-69
2021/09/12 09:28:27;;;;;;;7.55;4.40;;;;;;;;;;4986503;28;20064;-69
2021/09/12 09:30:57;;;;;;;8.02;3.80;;;;;;;;;;4988119;28;20050;-73
2021/09/12 09:33:27;;;;;;;5.43;3.70;;;;;;;;;;4989075;28;20054;-71
2021/09/12 09:35:57;;;;;;;6.20;3.60;;;;;;;;;;4988664;28;20073;-72
2021/09/12 09:38:26;;;;;;;5.72;3.40;;;;;;;;;;4990168;28;20960;-77
2021/09/12 09:40:59;;;;;;;6.50;4.00;;;;;;;;;;4989684;28;20046;-69
2021/09/12 09:43:38;;;;;;;6.95;3.55;;;;;;;;;;4983226;28;20051;-75
2021/09/12 09:46:06;;;;;;;5.45;3.45;;;;;;;;;;4989645;28;20050;-70
2021/09/12 09:48:35;;;;;;;5.28;3.80;;;;;;;;;;4989437;28;20042;-70
2021/09/12 09:51:04;;;;;;;5.18;3.60;;;;;;;;;;4988643;28;20193;-71
2021/09/12 09:53:35;;;;;;;4.97;3.47;;;;;;;;;;4989331;28;20047;-69
2021/09/12 09:56:04;;;;;;;4.65;3.50;;;;;;;;;;4987175;28;20058;-70
2021/09/12 09:58:33;;;;;;;6.25;3.63;;;;;;;;;;4984678;28;20046;-70
2021/09/12 10:01:03;;;;;;;4.90;3.47;;;;;;;;;;4983669;28;20616;-69
2021/09/12 10:03:32;;;;;;;4.10;3.05;;;;;;;;;;4981778;28;20137;-69
2021/09/12 10:06:01;;;;;;;4.97;3.42;;;;;;;;;;4988617;28;20046;-71
2021/09/12 10:08:29;;;;;;;5.45;3.10;;;;;;;;;;4989468;28;20050;-71
2021/09/12 10:10:58;;;;;;;4.45;3.33;;;;;;;;;;4988090;28;20076;-73
2021/09/12 10:13:27;;;;;;;5.00;3.00;;;;;;;;;;4988784;28;20074;-70
2021/09/12 10:15:57;;;;;;;4.53;3.10;;;;;;;;;;4990053;28;20061;-70
2021/09/12 10:18:29;;;;;;;4.78;3.20;;;;;;;;;;4988378;28;20137;-73
2021/09/12 10:21:18;;;;;;;5.07;3.00;;;;;;;;;;4988853;28;20495;-73
2021/09/12 10:23:56;;;;;;;3.60;2.80;;;;;;;;;;4988939;28;20082;-70
2021/09/12 10:26:28;;;;;;;4.90;2.80;;;;;;;;;;4990102;28;20403;-73
2021/09/12 10:28:56;;;;;;;4.15;2.92;;;;;;;;;;4986355;28;20129;-74
2021/09/12 10:31:32;;;;;;;3.65;2.70;;;;;;;;;;4987293;28;20042;-77
2021/09/12 10:34:06;;;;;;;5.15;3.13;;;;;;;;;;4988758;28;20046;-74
2021/09/12 10:36:35;;;;;;;5.68;2.75;;;;;;;;;;4990273;28;20439;-70
2021/09/12 10:39:18;;;;;;;5.03;3.25;;;;;;;;;;4988106;28;20057;-70
2021/09/12 10:42:13;;;;;;;4.63;2.85;;;;;;;;;;4987768;28;20137;-73
2021/09/12 10:44:41;;;;;;;4.57;3.13;;;;;;;;;;4970342;28;20499;-69
2021/09/12 10:47:10;;;;;;;4.55;3.08;;;;;;;;;;4988495;28;20057;-70
2021/09/12 10:49:40;;;;;;;4.50;2.65;;;;;;;;;;4989616;28;20134;-71
2021/09/12 10:52:10;;;;;;;4.25;2.75;;;;;;;;;;4989395;28;20105;-69
2021/09/12 10:54:57;;;;;;;4.55;3.03;;;;;;;;;;4989239;28;20046;-69
2021/09/12 10:57:26;;;;;;;5.05;2.60;;;;;;;;;;4987889;28;20050;-71
2021/09/12 10:59:54;;;;;;;3.30;2.72;;;;;;;;;;4988930;28;20139;-69
2021/09/12 11:02:23;;;;;;;5.00;2.95;;;;;;;;;;4988678;28;20092;-72
2021/09/12 11:04:53;;;;;;;3.50;2.45;;;;;;;;;;4987916;28;20046;-69
2021/09/12 11:07:21;;;;;;;3.80;2.88;;;;;;;;;;4988507;28;20137;-71
2021/09/12 11:09:49;;;;;;;4.38;2.50;;;;;;;;;;4988524;28;20090;-70
2021/09/12 11:12:18;;;;;;;5.32;2.65;;;;;;;;;;4990715;28;20034;-69
2021/09/12 11:14:47;;;;;;;3.63;2.38;;;;;;;;;;4991846;28;20141;-69
2021/09/12 11:17:16;;;;;;;3.55;2.50;;;;;;;;;;4991389;28;20533;-72
2021/09/12 11:19:53;;;;;;;3.45;2.63;;;;;;;;;;4990594;28;20050;-69
2021/09/12 11:22:22;;;;;;;5.25;3.15;;;;;;;;;;4989936;28;20050;-70
2021/09/12 11:25:01;;;;;;;5.72;2.67;;;;;;;;;;4990963;28;20133;-69
2021/09/12 11:27:31;;;;;;;4.38;2.42;;;;;;;;;;4978482;28;20130;-69
2021/09/12 11:29:59;;;;;;;3.72;2.45;;;;;;;;;;4990637;28;20055;-69
2021/09/12 11:32:28;;;;;;;4.65;2.70;;;;;;;;;;4990802;28;20141;-71
2021/09/12 11:34:57;;;;;;;3.97;2.45;;;;;;;;;;4990516;28;20058;-70
2021/09/12 11:37:26;;;;;;;4.07;2.30;;;;;;;;;;4991073;28;20511;-71
2021/09/12 11:39:56;;;;;;;3.60;2.30;;;;;;;;;;4988255;28;20418;-71
2021/09/12 11:42:25;;;;;;;2.63;1.98;;;;;;;;;;4992216;28;20110;-68
2021/09/12 11:44:55;;;;;;;3.05;2.25;;;;;;;;;;4990429;28;20069;-68
2021/09/12 11:47:24;;;;;;;3.63;2.28;;;;;;;;;;4991861;28;20146;-67
2021/09/12 11:50:00;;;;;;;3.45;2.20;;;;;;;;;;4991547;28;20430;-72
2021/09/12 11:52:31;;;;;;;3.45;2.10;;;;;;;;;;4992094;28;20104;-74
2021/09/12 11:54:59;;;;;;;3.03;2.00;;;;;;;;;;4990818;28;20491;-69
2021/09/12 11:57:28;;;;;;;3.08;2.47;;;;;;;;;;4991680;28;20074;-74
2021/09/12 11:59:56;;;;;;;2.22;1.70;;;;;;;;;;4990975;28;20685;-68
2021/09/12 12:02:26;;;;;;;2.35;2.00;;;;;;;;;;4991300;28;20062;-74
2021/09/12 12:04:57;;;;;;;3.17;2.35;;;;;;;;;;4989885;28;20161;-73
2021/09/12 12:07:36;;;;;;;2.92;2.20;;;;;;;;;;4990893;28;20098;-70
2021/09/12 12:10:05;;;;;;;3.25;2.30;;;;;;;;;;4991315;28;20096;-68
2021/09/12 12:12:37;;;;;;;11.55;2.13;;;;;;;;;;4991726;28;20043;-70
2021/09/12 12:15:06;;;;;;;2.70;1.85;;;;;;;;;;4990760;28;20129;-67
2021/09/12 12:17:35;;;;;;;2.22;1.90;;;;;;;;;;4991205;28;20054;-69
2021/09/12 12:20:04;;;;;;;5.97;2.25;;;;;;;;;;4991127;28;20042;-69
2021/09/12 12:22:37;;;;;;;2.17;1.70;;;;;;;;;;4991469;28;20125;-70
2021/09/12 12:25:06;;;;;;;3.00;2.10;;;;;;;;;;4990647;28;20467;-68
2021/09/12 12:27:40;;;;;;;2.20;1.70;;;;;;;;;;4990025;28;20089;-69
2021/09/12 12:30:08;;;;;;;3.17;2.10;;;;;;;;;;4990927;28;20082;-68
2021/09/12 12:32:37;;;;;;;2.65;2.30;;;;;;;;;;4989124;28;20052;-71
2021/09/12 12:35:15;;;;;;;3.00;2.30;;;;;;;;;;4987014;28;20423;-68
2021/09/12 12:37:46;;;;;;;2.90;2.00;;;;;;;;;;4987382;28;20317;-70
2021/09/12 12:40:19;;;;;;;2.47;2.13;;;;;;;;;;4987237;28;20520;-68
2021/09/12 12:42:48;;;;;;;2.30;1.83;;;;;;;;;;4984278;28;20141;-70
2021/09/12 12:45:18;;;;;;;2.15;1.63;;;;;;;;;;4987449;28;20056;-70
2021/09/12 12:47:46;;;;;;;4.00;1.85;;;;;;;;;;4987051;28;20501;-67
2021/09/12 12:50:27;;;;;;;3.10;2.10;;;;;;;;;;4967704;28;20163;-68
2021/09/12 12:53:08;;;;;;;2.72;1.90;;;;;;;;;;4970977;28;20133;-70
2021/09/12 12:55:36;;;;;;;3.20;2.30;;;;;;;;;;4984697;28;20422;-70
2021/09/12 12:58:10;;;;;;;9.35;5.47;;;;;;;;;;4985680;28;20061;-70
2021/09/12 13:00:38;;;;;;;7.75;5.03;;;;;;;;;;4982720;28;20054;-74
2021/09/12 13:03:07;;;;;;;15.27;9.38;;;;;;;;;;4984786;28;20077;-74
2021/09/12 13:05:36;;;;;;;5.95;3.67;;;;;;;;;;4983495;28;20054;-69
2021/09/12 13:08:05;;;;;;;5.45;2.20;;;;;;;;;;4985725;28;20064;-67
2021/09/12 13:10:36;;;;;;;4.20;2.20;;;;;;;;;;4988226;28;20097;-68
2021/09/12 13:13:05;;;;;;;3.45;2.25;;;;;;;;;;4989058;28;20254;-67
2021/09/12 13:15:36;;;;;;;4.05;1.75;;;;;;;;;;4990316;28;20121;-67
2021/09/12 13:18:05;;;;;;;2.67;1.90;;;;;;;;;;4989830;28;20541;-69
2021/09/12 13:20:33;;;;;;;3.53;1.95;;;;;;;;;;4990652;28;20129;-67
2021/09/12 13:23:02;;;;;;;3.08;2.00;;;;;;;;;;4989765;28;20046;-69
2021/09/12 13:25:30;;;;;;;2.42;1.83;;;;;;;;;;4989079;28;20052;-69
2021/09/12 13:28:00;;;;;;;2.25;1.80;;;;;;;;;;4989701;28;20113;-74
2021/09/12 13:30:28;;;;;;;3.70;1.88;;;;;;;;;;4986977;28;20092;-70
2021/09/12 13:32:57;;;;;;;3.72;1.90;;;;;;;;;;4986838;28;20054;-67
2021/09/12 13:35:26;;;;;;;2.53;2.00;;;;;;;;;;4988732;28;20050;-67
2021/09/12 13:37:55;;;;;;;3.58;1.98;;;;;;;;;;4989474;28;20134;-67
2021/09/12 13:40:23;;;;;;;3.03;1.88;;;;;;;;;;4993311;28;20042;-67
2021/09/12 13:42:51;;;;;;;3.70;1.90;;;;;;;;;;4994251;28;20082;-68
2021/09/12 13:45:22;;;;;;;2.92;2.05;;;;;;;;;;4993837;28;20074;-67
2021/09/12 13:47:50;;;;;;;2.58;2.20;;;;;;;;;;4993876;28;20133;-67
2021/09/12 13:50:19;;;;;;;2.33;1.95;;;;;;;;;;4994031;28;20620;-67
2021/09/12 13:52:47;;;;;;;4.25;2.15;;;;;;;;;;4993708;28;20330;-67
2021/09/12 13:55:16;;;;;;;4.22;2.15;;;;;;;;;;4992614;28;20046;-68
2021/09/12 13:57:45;;;;;;;3.40;1.63;;;;;;;;;;4992187;28;20100;-71
2021/09/12 14:00:13;;;;;;;3.45;1.98;;;;;;;;;;4992906;28;20077;-67
2021/09/12 14:02:43;;;;;;;3.10;2.03;;;;;;;;;;4992541;28;20447;-67
2021/09/12 14:05:12;;;;;;;2.10;1.83;;;;;;;;;;4991556;28;20077;-67
2021/09/12 14:07:40;;;;;;;3.63;2.00;;;;;;;;;;4991034;28;20150;-68
2021/09/12 14:10:09;;;;;;;2.92;2.10;;;;;;;;;;4991703;28;20086;-67
2021/09/12 14:12:37;;;;;;;2.63;2.28;;;;;;;;;;4993065;28;20118;-73
2021/09/12 14:15:07;;;;;;;2.50;1.73;;;;;;;;;;4992162;28;20515;-72
2021/09/12 14:17:35;;;;;;;2.63;2.00;;;;;;;;;;4992964;28;20172;-74
2021/09/12 14:20:05;;;;;;;2.47;1.95;;;;;;;;;;4991664;28;20046;-68
2021/09/12 14:22:34;;;;;;;2.70;1.95;;;;;;;;;;4993625;28;20051;-72
2021/09/12 14:25:02;;;;;;;3.15;2.13;;;;;;;;;;4992969;28;20494;-71
2021/09/12 14:27:30;;;;;;;2.40;1.88;;;;;;;;;;4992311;28;20050;-69
2021/09/12 14:29:59;;;;;;;3.15;1.77;;;;;;;;;;4992842;28;20050;-75
2021/09/12 14:32:47;;;;;;;2.88;2.08;;;;;;;;;;4990895;28;20453;-67
2021/09/12 14:35:17;;;;;;;3.88;1.90;;;;;;;;;;4993138;28;20084;-67
2021/09/12 14:37:46;;;;;;;3.58;2.20;;;;;;;;;;4992132;28;20132;-67
2021/09/12 14:40:14;;;;;;;2.67;1.83;;;;;;;;;;4991894;28;20081;-68
2021/09/12 14:42:42;;;;;;;2.95;1.60;;;;;;;;;;4992692;28;20136;-67
2021/09/12 14:45:11;;;;;;;7.20;2.85;;;;;;;;;;4991292;28;20521;-72
2021/09/12 14:47:43;;;;;;;2.65;2.10;;;;;;;;;;4993034;28;20094;-68
2021/09/12 14:50:12;;;;;;;3.05;2.13;;;;;;;;;;4992518;28;20133;-67
2021/09/12 14:52:42;;;;;;;2.80;2.05;;;;;;;;;;4992998;28;20055;-69